M I D A S
Marine Information and Data Acquisition System
Tripno 1828 of the Zeeleeuw from 2009-12-17 07:39:48 to 2009-12-17 15:53:17
Back to CruiseResearch ActivitiesStationsMapUnderway DataData graphs

EquipmentUnitsComment
TimeDGPSUTC
LatitudeDGPSDM.mWGS84
LongitudeDGPSDM.mWGS84
TemperatureSBE03/SBE38deg celciusITS90
ConductivitySBE21S/mITS90
SalinitySBE21 Practical Salinity Units
ChlorophylAChelsea fluorimeterg/lCalibrated in Aceton
Missing or incorrect values are displayed as -999
Sea surface data collected by the RV Zeeleeuw from 2009-12-17 07:59:56 to 2009-12-17 16:00:49
Time Latitude Longitude Temperature Conductivity Salinity ChlorophylA
2009-12-17 08:01:06 51°13.674 2°55.905 14.6891 0.026464 0.175031 1.088875
2009-12-17 08:02:06 51°13.695 2°55.817 14.7295 0.026361 0.174335 1.088875
2009-12-17 08:03:06 51°13.744 2°55.723 14.6899 0.026155 0.172956 1.088875
2009-12-17 08:04:06 51°13.812 2°55.646 14.7617 0.026155 0.17296 1.088875
2009-12-17 08:05:06 51°13.891 2°55.632 14.833 0.026772 0.177183 1.088875
2009-12-17 08:06:05 51°13.937 2°55.659 14.8493 0.027596 0.182792 1.088875
2009-12-17 08:07:03 51°13.944 2°55.635 14.4121 0.024097 0.159028 1.088875
2009-12-17 08:08:02 51°14.002 2°55.554 14.7139 0.026258 0.173702 1.088875
2009-12-17 08:09:02 51°14.112 2°55.431 14.6261 0.025332 0.167373 1.088875
2009-12-17 08:10:02 51°14.232 2°55.298 14.5121 0.025332 0.167436 1.088875
2009-12-17 08:11:02 51°14.333 2°55.12 14.4355 0.023994 0.158311 1.088875
2009-12-17 08:12:02 51°14.393 2°54.87 14.5052 0.022656 0.149321 1.088875
2009-12-17 08:13:02 51°14.339 2°54.582 14.3912 0.022965 0.15141 1.088875
2009-12-17 08:14:02 51°14.255 2°54.293 14.3586 0.022759 0.150118 1.088875
2009-12-17 08:15:02 51°14.168 2°54.003 14.2199 0.023274 0.15361 1.088875
2009-12-17 08:16:02 51°14.08 2°53.711 14.2163 0.023376 0.154511 1.088875
2009-12-17 08:17:02 51°13.993 2°53.416 14.3253 0.023788 0.157411 1.088875
2009-12-17 08:18:02 51°13.908 2°53.117 14.3001 0.024611 0.16319 1.088875
2009-12-17 08:19:02 51°13.82 2°52.816 14.3164 0.022656 0.150055 1.123699
2009-12-17 08:20:02 51°13.732 2°52.515 14.284 0.024508 0.162719 1.088875
2009-12-17 08:21:02 51°13.644 2°52.214 14.2822 0.028213 0.188049 1.088875
2009-12-17 08:22:02 51°13.545 2°51.921 14.271 0.025435 0.169109 1.088875
2009-12-17 08:23:02 51°13.44 2°51.633 14.3297 0.028316 0.189113 1.123699
2009-12-17 08:24:02 51°13.335 2°51.351 14.229 0.023685 0.157505 1.123699
2009-12-17 08:25:02 51°13.233 2°51.069 14.317 0.023377 0.155487 1.088875
2009-12-17 08:26:02 51°13.132 2°50.787 14.2451 0.02564 0.170955 1.088875
2009-12-17 08:27:02 51°13.03 2°50.504 14.2961 0.02492 0.166111 1.088875
2009-12-17 08:28:02 51°12.929 2°50.222 14.254 0.025332 0.168874 1.088875
2009-12-17 08:29:02 51°12.827 2°49.941 14.3029 0.024509 0.163323 1.088875
2009-12-17 08:30:02 51°12.727 2°49.659 14.3059 0.022759 0.151435 1.088875
2009-12-17 08:31:02 51°12.625 2°49.376 14.2943 0.022347 0.148661 1.088875
2009-12-17 08:32:02 51°12.523 2°49.091 14.2811 0.023582 0.157053 1.054051
2009-12-17 08:33:02 51°12.421 2°48.808 14.3262 0.023582 0.157088 1.088875
2009-12-17 08:34:02 51°12.319 2°48.527 14.3421 0.026361 0.176193 1.088875
2009-12-17 08:35:02 51°12.218 2°48.248 14.3159 0.02492 0.166253 1.054051
2009-12-17 08:36:02 51°12.116 2°47.969 14.3338 0.022656 0.150852 1.054051
2009-12-17 08:37:02 51°12.015 2°47.687 14.3131 0.024406 0.162886 1.054051
2009-12-17 08:38:02 51°11.911 2°47.409 14.3461 0.023171 0.154377 1.088875
2009-12-17 08:39:02 51°11.809 2°47.132 14.359 0.025126 0.167812 1.054051
2009-12-17 08:40:02 51°11.719 2°46.847 14.3575 0.02739 0.183371 1.019227
2009-12-17 08:41:02 51°11.693 2°46.534 14.373 0.022862 0.15246 1.019227
2009-12-17 08:42:02 51°11.678 2°46.213 14.3696 0.023171 0.154602 1.019227
2009-12-17 08:43:02 51°11.669 2°45.893 14.3992 0.022965 0.153191 1.019227
2009-12-17 08:44:02 51°11.661 2°45.569 14.4039 0.023171 0.154641 1.054051
2009-12-17 08:45:02 51°11.655 2°45.245 14.4191 0.022553 0.150459 1.054051
2009-12-17 08:46:02 51°11.644 2°44.925 14.4175 0.023068 0.153999 1.019227
2009-12-17 08:47:02 51°11.634 2°44.608 14.4316 0.023171 0.1547 1.054051
2009-12-17 08:48:02 51°11.626 2°44.295 14.4366 0.022862 0.152683 1.019227
2009-12-17 08:49:02 51°11.62 2°43.987 14.4261 0.024611 0.164624 1.019227
2009-12-17 08:50:02 51°11.612 2°43.683 14.4599 0.026567 0.178078 1.054051
2009-12-17 08:51:02 51°11.604 2°43.38 14.4612 0.025126 0.168162 1.019227
2009-12-17 08:52:02 51°11.596 2°43.075 14.4669 0.022656 0.151315 1.054051
2009-12-17 08:53:02 51°11.587 2°42.769 14.4837 0.023068 0.154161 1.019227
2009-12-17 08:54:02 51°11.578 2°42.465 14.4959 0.023377 0.156331 1.019227
2009-12-17 08:55:02 51°11.567 2°42.161 14.4998 0.023274 0.155628 1.019227
2009-12-17 08:56:02 51°11.547 2°41.858 14.5112 0.022965 0.153567 1.193347
2009-12-17 08:57:02 51°11.532 2°41.579 14.5215 0.023582 0.15781 1.158523
2009-12-17 08:58:02 51°11.577 2°41.478 14.5422 0.025126 0.168361 1.123699
2009-12-17 08:59:02 51°11.619 2°41.409 14.5381 0.022553 0.150732 1.158523
2009-12-17 09:00:02 51°11.593 2°41.315 14.549 0.022245 0.148666 1.158523
2009-12-17 09:01:02 51°11.531 2°41.294 14.5566 0.022039 0.14729 1.158523
2009-12-17 09:02:02 51°11.438 2°41.32 14.5851 0.029037 0.195373 1.158523
2009-12-17 09:03:02 51°11.357 2°41.31 14.6183 0.023994 0.160588 1.158523
2009-12-17 09:04:02 51°11.288 2°41.263 14.6729 0.024406 0.163414 1.193347
2009-12-17 09:05:02 51°11.235 2°41.185 14.7118 0.025949 0.17401 1.158523
2009-12-17 09:06:02 51°11.185 2°41.106 14.7196 0.023274 0.155681 1.193347
2009-12-17 09:07:02 51°11.136 2°41.031 14.7 0.026567 0.178257 1.193347
2009-12-17 09:08:02 51°11.091 2°40.958 14.7016 0.024097 0.161291 1.193347
2009-12-17 09:09:02 51°11.048 2°40.889 14.7211 0.023788 0.159174 1.193347
2009-12-17 09:10:02 51°11.007 2°40.814 14.7428 0.023479 0.157083 1.193347
2009-12-17 09:11:02 51°10.968 2°40.737 14.7549 0.023891 0.159938 1.193347
2009-12-17 09:12:02 51°10.928 2°40.662 14.7952 0.024097 0.161346 1.193347
2009-12-17 09:13:02 51°10.889 2°40.588 14.8058 0.023685 0.158524 1.193347
2009-12-17 09:14:02 51°10.85 2°40.512 14.8165 0.023171 0.155017 1.193347
2009-12-17 09:15:02 51°10.81 2°40.435 14.8432 0.023788 0.159253 1.193347
2009-12-17 09:16:02 51°10.768 2°40.356 14.8539 0.023582 0.157853 1.193347
2009-12-17 09:17:02 51°10.728 2°40.269 14.8759 0.023274 0.15574 1.193347
2009-12-17 09:18:02 51°10.693 2°40.176 14.8938 0.022553 0.150844 1.193347
2009-12-17 09:19:02 51°10.659 2°40.083 14.9122 0.023891 0.160047 1.193347
2009-12-17 09:20:02 51°10.622 2°39.993 14.9286 0.023171 0.155146 1.193347
2009-12-17 09:21:02 51°10.587 2°39.904 14.9484 0.023377 0.156553 1.193347
2009-12-17 09:22:02 51°10.555 2°39.82 14.9678 0.025332 0.169996 1.193347
2009-12-17 09:23:02 51°10.528 2°39.734 14.9906 0.025538 0.171389 1.193347
2009-12-17 09:24:02 51°10.504 2°39.648 15.0109 0.024509 0.164341 1.193347
2009-12-17 09:25:02 51°10.476 2°39.567 15.0303 0.023171 0.15516 1.193347
2009-12-17 09:26:02 51°10.444 2°39.486 15.0492 0.023068 0.154471 1.193347
2009-12-17 09:27:02 51°10.411 2°39.408 15.0732 0.022862 0.153071 1.193347
2009-12-17 09:28:02 51°10.376 2°39.333 15.0892 0.023479 0.157306 1.193347
2009-12-17 09:29:02 51°10.34 2°39.257 15.1057 0.025126 0.168633 1.193347
2009-12-17 09:30:02 51°10.304 2°39.181 15.1419 0.025332 0.170077 1.193347
2009-12-17 09:31:02 51°10.267 2°39.106 15.1487 0.022039 0.147492 1.193347
2009-12-17 09:32:02 51°10.231 2°39.031 15.1588 0.024097 0.161646 1.193347
2009-12-17 09:33:02 51°10.194 2°38.957 15.1826 0.0242 0.162348 1.193347
2009-12-17 09:34:02 51°10.158 2°38.883 15.1939 0.022759 0.152458 1.193347
2009-12-17 09:35:02 51°10.12 2°38.81 15.2153 0.023788 0.159523 1.193347
2009-12-17 09:36:02 51°10.081 2°38.738 15.2333 0.023788 0.159545 1.193347
2009-12-17 09:37:02 51°10.042 2°38.668 15.2668 0.023479 0.157463 1.193347
2009-12-17 09:38:02 51°10.003 2°38.598 15.2907 0.023377 0.156758 1.193347
2009-12-17 09:39:02 51°9.964 2°38.529 15.3006 0.023274 0.156075 1.193347
2009-12-17 09:40:02 51°9.925 2°38.461 15.3193 0.023274 0.156096 1.193347
2009-12-17 09:41:02 51°9.89 2°38.385 15.3514 0.023068 0.154698 1.193347
2009-12-17 09:42:02 51°9.862 2°38.302 15.3721 0.023377 0.15684 1.193347
2009-12-17 09:43:02 51°9.845 2°38.214 15.3904 0.023479 0.157563 1.193347
2009-12-17 09:44:02 51°9.844 2°38.131 15.4119 0.024303 0.163272 1.193347
2009-12-17 09:45:02 51°9.856 2°38.057 15.4249 0.023274 0.156142 1.193347
2009-12-17 09:46:02 51°9.878 2°37.99 15.45 0.022759 0.152651 1.193347
2009-12-17 09:47:02 51°9.926 2°37.919 15.4749 0.022245 0.149148 1.193347
2009-12-17 09:48:02 51°9.959 2°37.879 15.4983 0.022245 0.149205 1.193347
2009-12-17 09:49:02 51°9.976 2°37.848 15.5135 0.022553 0.151314 1.193347
2009-12-17 09:50:02 51°9.986 2°37.822 15.5533 0.025126 0.169107 1.193347
2009-12-17 09:51:02 51°9.99 2°37.8 15.5712 0.022965 0.154202 1.193347
2009-12-17 09:52:02 51°9.99 2°37.783 15.581 0.022759 0.152809 1.193347
2009-12-17 09:53:02 51°9.985 2°37.774 15.5701 0.021833 0.146525 1.193347
2009-12-17 09:54:02 51°9.981 2°37.769 15.3014 0.025332 0.170822 1.193347
2009-12-17 09:55:02 51°9.979 2°37.767 15.3513 0.024097 0.162399 1.193347
2009-12-17 09:56:02 51°9.978 2°37.766 15.3911 0.024097 0.162443 1.193347
2009-12-17 09:57:02 51°9.977 2°37.765 15.4022 0.023377 0.157493 1.193347
2009-12-17 09:58:02 51°9.977 2°37.763 15.4012 0.023068 0.15556 1.193347
2009-12-17 09:59:02 51°9.975 2°37.764 15.4173 0.022553 0.152029 1.193347
2009-12-17 10:00:02 51°9.972 2°37.765 15.4521 0.023171 0.156319 1.193347
2009-12-17 10:01:02 51°9.969 2°37.768 15.4443 0.023274 0.157089 1.193347
2009-12-17 10:02:03 51°9.967 2°37.772 15.4488 0.022862 0.154308 1.193347
2009-12-17 10:03:03 51°9.966 2°37.778 15.4693 0.023479 0.15861 1.193347
2009-12-17 10:04:03 51°9.964 2°37.784 15.4696 0.022862 0.154481 1.193347
2009-12-17 10:05:02 51°9.962 2°37.791 15.4848 0.022862 0.154562 1.193347
2009-12-17 10:06:03 51°9.96 2°37.8 15.4945 0.022553 0.152497 1.193347
2009-12-17 10:07:02 51°9.959 2°37.808 15.5087 0.022553 0.152535 1.193347
2009-12-17 10:08:02 51°9.958 2°37.817 15.5149 0.022347 0.151162 1.193347
2009-12-17 10:09:03 51°9.958 2°37.827 15.5193 0.022965 0.155486 1.193347
2009-12-17 10:10:03 51°9.957 2°37.838 15.5279 0.022553 0.152689 1.193347
2009-12-17 10:11:03 51°9.955 2°37.851 15.5345 0.023994 0.162769 1.193347
2009-12-17 10:12:02 51°9.953 2°37.862 15.5323 0.023274 0.157879 1.193347
2009-12-17 10:13:03 51°9.951 2°37.872 15.5345 0.022553 0.152899 1.193347
2009-12-17 10:14:02 51°9.95 2°37.879 15.5504 0.023479 0.159373 1.193347
2009-12-17 10:15:03 51°9.948 2°37.886 15.5491 0.023171 0.157332 1.193347
2009-12-17 10:16:02 51°9.946 2°37.894 15.5535 0.022759 0.154537 1.193347
2009-12-17 10:17:03 51°9.944 2°37.903 15.5663 0.022862 0.155265 1.158523
2009-12-17 10:18:03 51°9.941 2°37.895 15.5648 0.023068 0.156755 1.158523
2009-12-17 10:19:02 51°9.962 2°37.847 15.578 0.022656 0.153968 1.158523
2009-12-17 10:20:03 51°10.018 2°37.884 15.5768 0.023479 0.159782 1.158523
2009-12-17 10:21:02 51°10.083 2°38.055 15.5744 0.026155 0.178458 1.158523
2009-12-17 10:22:03 51°10.119 2°38.338 15.5957 0.026773 0.182877 1.158523
2009-12-17 10:23:02 51°10.146 2°38.625 15.58 0.025538 0.174345 1.297819
2009-12-17 10:24:02 51°10.196 2°38.914 15.5903 0.028316 0.193875 1.262995
2009-12-17 10:25:02 51°10.25 2°39.202 15.5959 0.025743 0.175896 1.262995
2009-12-17 10:26:02 51°10.307 2°39.491 15.5739 0.025229 0.172347 1.262995
2009-12-17 10:27:02 51°10.364 2°39.78 15.5863 0.028213 0.19337 1.262995
2009-12-17 10:28:02 51°10.419 2°40.072 15.5848 0.025641 0.175335 1.262995
2009-12-17 10:29:02 51°10.477 2°40.363 15.6048 0.028831 0.197891 1.262995
2009-12-17 10:30:02 51°10.534 2°40.653 15.5915 0.026978 0.184979 1.193347
2009-12-17 10:31:02 51°10.59 2°40.944 15.5836 0.026361 0.180642 1.228171
2009-12-17 10:32:01 51°10.648 2°41.232 15.5997 0.025949 0.177829 1.193347
2009-12-17 10:33:02 51°10.71 2°41.529 15.5967 0.025126 0.172178 1.193347
2009-12-17 10:34:02 51°10.774 2°41.82 15.6061 0.02811 0.19328 1.193347
2009-12-17 10:35:02 51°10.844 2°42.107 15.6049 0.024406 0.167216 1.193347
2009-12-17 10:36:02 51°10.907 2°42.396 15.5992 0.02492 0.170957 1.228171
2009-12-17 10:37:02 51°10.967 2°42.688 15.6033 0.02667 0.183335 1.193347
2009-12-17 10:38:02 51°11.024 2°42.981 15.5984 0.026773 0.184161 1.193347
2009-12-17 10:39:02 51°11.075 2°43.277 15.6024 0.02492 0.171146 1.193347
2009-12-17 10:40:02 51°11.116 2°43.578 15.6087 0.025126 0.172668 1.193347
2009-12-17 10:41:02 51°11.155 2°43.881 15.6119 0.02348 0.16114 1.158523
2009-12-17 10:42:02 51°11.19 2°44.185 15.6161 0.024714 0.169897 1.158523
2009-12-17 10:43:02 51°11.231 2°44.49 15.6292 0.026155 0.180196 1.158523
2009-12-17 10:44:02 51°11.274 2°44.794 15.6239 0.025744 0.177338 1.123699
2009-12-17 10:45:02 51°11.317 2°45.1 15.6319 0.027081 0.186983 1.123699
2009-12-17 10:46:02 51°11.405 2°45.375 15.6132 0.024612 0.169603 1.123699
2009-12-17 10:47:02 51°11.506 2°45.645 15.6304 0.026464 0.182838 1.123699
2009-12-17 10:48:02 51°11.598 2°45.924 15.6086 0.027287 0.188676 1.123699
2009-12-17 10:49:02 51°11.687 2°46.208 15.6404 0.025744 0.177868 1.123699
2009-12-17 10:50:02 51°11.777 2°46.491 15.6347 0.027802 0.192548 1.088875
2009-12-17 10:51:02 51°11.862 2°46.776 15.6279 0.025641 0.177328 1.123699
2009-12-17 10:52:02 51°11.951 2°47.06 15.629 0.025126 0.17379 1.123699
2009-12-17 10:53:02 51°12.04 2°47.341 15.6447 0.0242 0.167273 1.123699
2009-12-17 10:54:02 51°12.129 2°47.622 15.6345 0.026155 0.18124 1.088875
2009-12-17 10:55:02 51°12.218 2°47.906 15.6424 0.023582 0.163044 1.088875
2009-12-17 10:56:02 51°12.308 2°48.192 15.6508 0.025332 0.175539 1.088875
2009-12-17 10:57:02 51°12.397 2°48.479 15.6548 0.0242 0.167531 1.088875
2009-12-17 10:58:02 51°12.485 2°48.767 15.6573 0.025126 0.174342 1.054051
2009-12-17 10:59:02 51°12.576 2°49.053 15.6592 0.026155 0.181696 1.054051
2009-12-17 11:00:02 51°12.667 2°49.339 15.6618 0.026773 0.186169 1.054051
2009-12-17 11:01:02 51°12.759 2°49.623 15.6632 0.027287 0.190038 1.054051
2009-12-17 11:02:02 51°12.85 2°49.909 15.6777 0.024509 0.170257 1.054051
2009-12-17 11:03:02 51°12.942 2°50.197 15.6754 0.027699 0.193097 1.054051
2009-12-17 11:04:02 51°13.042 2°50.477 15.6803 0.025229 0.175515 1.054051
2009-12-17 11:05:02 51°13.148 2°50.75 15.6752 0.024097 0.167513 1.054051
2009-12-17 11:06:02 51°13.253 2°51.022 15.6889 0.024097 0.167665 1.054051
2009-12-17 11:07:02 51°13.36 2°51.294 15.6864 0.025538 0.178095 1.054051
2009-12-17 11:08:02 51°13.466 2°51.571 15.6949 0.028008 0.195892 1.054051
2009-12-17 11:09:02 51°13.575 2°51.845 15.6944 0.024097 0.167998 1.019227
2009-12-17 11:10:02 51°13.684 2°52.121 15.7025 0.025744 0.179859 1.054051
2009-12-17 11:11:02 51°13.791 2°52.396 15.7048 0.024612 0.171762 1.019227
2009-12-17 11:12:02 51°13.899 2°52.672 15.7096 0.024097 0.168273 1.019227
2009-12-17 11:13:02 51°14.006 2°52.95 15.7124 0.026361 0.184528 1.054051
2009-12-17 11:14:02 51°14.119 2°53.223 15.7155 0.023274 0.162395 1.054051
2009-12-17 11:15:02 51°14.24 2°53.488 15.7175 0.023171 0.161779 1.019227
2009-12-17 11:16:02 51°14.363 2°53.755 15.7215 0.026258 0.184105 1.019227
2009-12-17 11:17:02 51°14.498 2°54.004 15.7215 0.025126 0.175987 1.019227
2009-12-17 11:18:02 51°14.671 2°54.18 15.7182 0.023788 0.16659 1.019227
2009-12-17 11:19:02 51°14.849 2°54.342 15.7153 0.025949 0.182208 1.054051
2009-12-17 11:20:02 51°15.028 2°54.506 15.7238 0.023685 0.165986 1.088875
2009-12-17 11:21:02 51°15.206 2°54.677 15.7288 0.022965 0.161012 1.054051
2009-12-17 11:22:02 51°15.381 2°54.85 15.729 0.025435 0.178831 1.019227
2009-12-17 11:23:02 51°15.531 2°55.065 15.7238 0.024612 0.172977 1.054051
2009-12-17 11:24:02 51°15.634 2°55.355 15.7337 0.025126 0.176692 1.054051
2009-12-17 11:25:02 51°15.717 2°55.662 15.7242 0.024406 0.171609 1.054051
2009-12-17 11:26:02 51°15.809 2°55.965 15.7297 0.028934 0.204527 1.019227
2009-12-17 11:27:02 51°15.919 2°56.256 15.739 0.023274 0.163603 1.019227
2009-12-17 11:28:02 51°16.034 2°56.542 15.7387 0.024509 0.172595 1.019227
2009-12-17 11:29:02 51°16.148 2°56.829 15.7466 0.025126 0.17711 1.019227
2009-12-17 11:30:02 51°16.261 2°57.122 15.7417 0.024303 0.171211 1.019227
2009-12-17 11:31:02 51°16.375 2°57.414 15.744 0.024509 0.172835 1.019227
2009-12-17 11:32:02 51°16.494 2°57.701 15.7493 0.02348 0.165465 1.019227
2009-12-17 11:33:02 51°16.615 2°57.988 15.7536 0.024817 0.175238 1.019227
2009-12-17 11:34:02 51°16.737 2°58.277 15.7469 0.025126 0.177509 1.019227
2009-12-17 11:35:02 51°16.853 2°58.575 15.7609 0.023068 0.162662 0.984403
2009-12-17 11:36:02 51°16.97 2°58.872 15.7631 0.027596 0.19568 1.019227
2009-12-17 11:37:02 51°17.091 2°59.167 15.7688 0.023377 0.165065 0.984403
2009-12-17 11:38:02 51°17.211 2°59.462 15.7702 0.024097 0.170348 0.984403
2009-12-17 11:39:02 51°17.332 2°59.757 15.771 0.025435 0.180258 0.984403
2009-12-17 11:40:02 51°17.45 3°0.057 15.7735 0.025949 0.184018 0.984403
2009-12-17 11:41:02 51°17.573 3°0.353 15.7647 0.024097 0.170598 0.984403
2009-12-17 11:42:02 51°17.694 3°0.65 15.7701 0.026052 0.184978 0.984403
2009-12-17 11:43:02 51°17.811 3°0.949 15.7735 0.023583 0.167091 0.984403
2009-12-17 11:44:02 51°17.936 3°1.242 15.7772 0.024715 0.175366 0.984403
2009-12-17 11:45:02 51°18.065 3°1.533 15.7757 0.024612 0.174757 0.984403
2009-12-17 11:46:02 51°18.193 3°1.826 15.7847 0.023685 0.168017 0.984403
2009-12-17 11:47:02 51°18.322 3°2.12 15.787 0.025847 0.183861 0.984403
2009-12-17 11:48:02 51°18.449 3°2.416 15.7884 0.023583 0.167456 0.984403
2009-12-17 11:49:02 51°18.578 3°2.71 15.7932 0.022862 0.162309 0.984403
2009-12-17 11:50:02 51°18.706 3°3.006 15.7982 0.023891 0.169909 0.984403
2009-12-17 11:51:02 51°18.834 3°3.301 15.8025 0.024303 0.172947 0.984403
2009-12-17 11:52:02 51°18.96 3°3.6 15.8045 0.025847 0.184317 0.949579
2009-12-17 11:53:02 51°19.087 3°3.898 15.8071 0.025538 0.182129 0.984403
2009-12-17 11:54:02 51°19.223 3°4.182 15.809 0.027905 0.199648 0.984403
2009-12-17 11:55:02 51°19.387 3°4.399 15.8081 0.022348 0.159066 0.984403
2009-12-17 11:56:02 51°19.585 3°4.52 15.8055 0.022348 0.159129 0.984403
2009-12-17 11:57:02 51°19.783 3°4.623 15.8028 0.022245 0.158505 0.949579
2009-12-17 11:58:02 51°19.984 3°4.734 15.8046 0.022142 0.157818 0.984403
2009-12-17 11:59:02 51°20.185 3°4.848 15.8116 0.022862 0.163165 0.949579
2009-12-17 12:00:02 51°20.382 3°4.963 15.8126 0.024612 0.176011 0.949579
2009-12-17 12:01:02 51°20.575 3°5.08 15.8124 0.023583 0.168654 0.949579
2009-12-17 12:02:02 51°20.744 3°5.152 15.7884 0.022759 0.162615 0.949579
2009-12-17 12:03:02 51°20.795 3°5.127 15.7989 0.021936 0.156651 0.949579
2009-12-17 12:04:02 51°20.803 3°5.087 15.8035 0.021319 0.152198 0.949579
2009-12-17 12:05:02 51°20.814 3°4.998 15.8078 0.021833 0.155993 0.949579
2009-12-17 12:06:02 51°20.853 3°4.923 15.8119 0.021936 0.156875 0.949579
2009-12-17 12:07:02 51°20.91 3°4.888 15.8157 0.021216 0.151612 0.949579
2009-12-17 12:08:02 51°20.976 3°4.888 15.8134 0.022142 0.15854 0.949579
2009-12-17 12:09:02 51°21.047 3°4.946 15.8165 0.022656 0.162362 0.949579
2009-12-17 12:10:02 51°21.105 3°5.04 15.8213 0.021421 0.153303 0.949579
2009-12-17 12:11:02 51°21.158 3°5.141 15.826 0.021936 0.157186 0.949579
2009-12-17 12:12:02 51°21.209 3°5.239 15.8276 0.02173 0.155721 0.949579
2009-12-17 12:13:02 51°21.246 3°5.358 15.8334 0.022348 0.160252 0.949579
2009-12-17 12:14:02 51°21.259 3°5.488 15.836 0.022348 0.160236 0.914755
2009-12-17 12:15:02 51°21.258 3°5.616 15.8413 0.022759 0.163302 0.914755
2009-12-17 12:16:02 51°21.245 3°5.731 15.8477 0.021833 0.156529 0.914755
2009-12-17 12:17:02 51°21.222 3°5.83 15.8468 0.02173 0.155899 0.914755
2009-12-17 12:18:02 51°21.196 3°5.925 15.8563 0.022759 0.163599 0.914755
2009-12-17 12:19:02 51°21.171 3°6.024 15.8517 0.022245 0.159803 0.949579
2009-12-17 12:20:02 51°21.148 3°6.126 15.8548 0.022348 0.160735 0.914755
2009-12-17 12:21:02 51°21.126 3°6.23 15.864 0.021833 0.156965 0.914755
2009-12-17 12:22:02 51°21.106 3°6.336 15.8651 0.022451 0.161512 0.914755
2009-12-17 12:23:02 51°21.089 3°6.443 15.8639 0.023068 0.166225 0.914755
2009-12-17 12:24:02 51°21.074 3°6.552 15.8697 0.022348 0.160931 0.949579
2009-12-17 12:25:02 51°21.067 3°6.669 15.875 0.023274 0.167859 0.949579
2009-12-17 12:26:02 51°21.07 3°6.793 15.8738 0.0242 0.174779 0.914755
2009-12-17 12:27:02 51°21.077 3°6.916 15.88 0.023685 0.170935 0.914755
2009-12-17 12:28:02 51°21.095 3°7.038 15.8874 0.022142 0.159551 0.914755
2009-12-17 12:29:02 51°21.125 3°7.157 15.8768 0.022759 0.164172 0.914755
2009-12-17 12:30:02 51°21.163 3°7.271 15.8783 0.021936 0.158122 0.914755
2009-12-17 12:31:02 51°21.201 3°7.386 15.8837 0.023377 0.16883 0.949579
2009-12-17 12:32:02 51°21.24 3°7.501 15.8914 0.021936 0.158193 0.949579
2009-12-17 12:33:02 51°21.284 3°7.613 15.8869 0.022862 0.165167 0.914755
2009-12-17 12:34:02 51°21.33 3°7.719 15.8856 0.022451 0.162134 0.914755
2009-12-17 12:35:02 51°21.381 3°7.818 15.8976 0.022039 0.159099 0.914755
2009-12-17 12:36:02 51°21.43 3°7.906 15.8975 0.021627 0.156085 0.914755
2009-12-17 12:37:02 51°21.478 3°7.992 15.8988 0.021524 0.155357 0.914755
2009-12-17 12:38:02 51°21.52 3°8.086 15.903 0.023377 0.1692 0.914755
2009-12-17 12:39:02 51°21.559 3°8.185 15.9009 0.022245 0.160893 0.914755
2009-12-17 12:40:02 51°21.596 3°8.286 15.8989 0.023171 0.16782 0.914755
2009-12-17 12:41:02 51°21.63 3°8.391 15.9004 0.022759 0.164733 0.914755
2009-12-17 12:42:02 51°21.659 3°8.498 15.9106 0.021936 0.158653 0.914755
2009-12-17 12:43:02 51°21.682 3°8.607 15.9152 0.022759 0.16482 0.914755
2009-12-17 12:44:02 51°21.701 3°8.715 15.9141 0.02173 0.157171 0.914755
2009-12-17 12:45:02 51°21.714 3°8.824 15.9194 0.022656 0.16419 0.914755
2009-12-17 12:46:02 51°21.728 3°8.931 15.9235 0.022862 0.165804 0.914755
2009-12-17 12:47:02 51°21.743 3°9.039 15.9131 0.022553 0.16351 0.914755
2009-12-17 12:48:02 51°21.75 3°9.155 15.9226 0.021524 0.155836 0.879931
2009-12-17 12:49:02 51°21.736 3°9.25 15.9347 0.023891 0.173542 0.914755
2009-12-17 12:50:02 51°21.735 3°9.313 15.9319 0.021113 0.152916 0.914755
2009-12-17 12:51:02 51°21.742 3°9.374 15.93 0.02173 0.157633 0.914755
2009-12-17 12:52:02 51°21.755 3°9.435 15.9247 0.022039 0.160049 0.914755
2009-12-17 12:53:02 51°21.772 3°9.52 15.9294 0.023171 0.168543 0.914755
2009-12-17 12:54:02 51°21.825 3°9.609 15.9397 0.021524 0.156255 0.914755
2009-12-17 12:55:02 51°21.882 3°9.622 15.9328 0.021319 0.154797 0.879931
2009-12-17 12:56:02 51°21.886 3°9.578 15.9323 0.021319 0.154891 0.879931
2009-12-17 12:57:02 51°21.834 3°9.42 15.9282 0.026155 0.191146 0.879931
2009-12-17 12:58:02 51°21.794 3°9.186 15.9383 0.026361 0.192707 0.914755
2009-12-17 12:59:02 51°21.738 3°8.97 15.9417 0.029346 0.21553 0.914755
2009-12-17 13:00:02 51°21.657 3°8.781 15.9335 0.027287 0.199972 0.914755
2009-12-17 13:01:02 51°21.569 3°8.599 15.9279 0.023994 0.175184 0.914755
2009-12-17 13:02:02 51°21.48 3°8.419 15.9279 0.026361 0.193149 0.914755
2009-12-17 13:03:02 51°21.406 3°8.273 15.9242 0.02492 0.18228 0.914755
2009-12-17 13:04:02 51°21.379 3°8.24 15.93 0.02492 0.182294 0.914755
2009-12-17 13:05:02 51°21.369 3°8.251 15.9333 0.026155 0.191653 0.914755
2009-12-17 13:06:02 51°21.371 3°8.269 15.9393 0.025229 0.184622 0.914755
2009-12-17 13:07:02 51°21.379 3°8.29 15.9433 0.023994 0.175313 0.914755
2009-12-17 13:08:02 51°21.391 3°8.313 15.9503 0.023171 0.169114 0.914755
2009-12-17 13:09:02 51°21.405 3°8.339 15.9535 0.022656 0.165401 0.914755
2009-12-17 13:10:02 51°21.423 3°8.369 15.9518 0.023377 0.170931 0.914755
2009-12-17 13:11:02 51°21.442 3°8.401 15.9589 0.022759 0.16631 0.914755
2009-12-17 13:12:02 51°21.462 3°8.438 15.9626 0.023068 0.168697 0.914755
2009-12-17 13:13:02 51°21.482 3°8.48 15.96 0.024818 0.182177 0.879931
2009-12-17 13:14:02 51°21.499 3°8.523 15.9657 0.021936 0.160419 0.914755
2009-12-17 13:15:02 51°21.518 3°8.566 15.9709 0.022142 0.162055 0.914755
2009-12-17 13:16:02 51°21.584 3°8.614 15.9684 0.022348 0.163664 0.914755
2009-12-17 13:17:02 51°21.719 3°8.738 15.9695 0.022039 0.161391 0.70581
2009-12-17 13:18:02 51°21.894 3°8.897 15.9706 0.023583 0.173154 0.70581
2009-12-17 13:19:02 51°22.071 3°9.063 15.9691 0.022759 0.167051 0.670986
2009-12-17 13:20:02 51°22.244 3°9.252 15.9793 0.022451 0.164697 0.670986
2009-12-17 13:21:02 51°22.412 3°9.242 15.9674 0.020804 0.152369 0.670986
2009-12-17 13:22:02 51°22.549 3°9.094 15.9713 0.021319 0.156291 0.670986
2009-12-17 13:23:02 51°22.723 3°9.024 15.9693 0.022862 0.168053 0.670986
2009-12-17 13:24:02 51°22.91 3°9.095 15.9771 0.025126 0.185212 0.670986
2009-12-17 13:25:02 51°23.051 3°9.346 15.9836 0.023583 0.17357 0.670986
2009-12-17 13:26:02 51°23.158 3°9.645 15.9852 0.026567 0.196259 0.670986
2009-12-17 13:27:02 51°23.273 3°9.932 15.9829 0.028522 0.211228 0.670986
2009-12-17 13:28:02 51°23.394 3°10.203 15.9818 0.026876 0.198795 0.670986
2009-12-17 13:29:02 51°23.554 3°10.395 15.9793 0.026361 0.194934 0.670986
2009-12-17 13:30:02 51°23.743 3°10.496 15.9774 0.021833 0.16059 0.670986
2009-12-17 13:31:02 51°23.932 3°10.58 15.985 0.022656 0.166808 0.670986
2009-12-17 13:32:02 51°24.124 3°10.668 16.1401 0.025332 0.187263 0.70581
2009-12-17 13:33:02 51°24.313 3°10.77 16.2082 0.022245 0.163751 0.70581
2009-12-17 13:34:01 51°24.501 3°10.867 16.1754 0.026361 0.195128 0.70581
2009-12-17 13:35:02 51°24.694 3°10.933 16.2279 0.023377 0.172378 0.70581
2009-12-17 13:36:02 51°24.885 3°10.993 15.263 0.0242 0.178648 0.845107
2009-12-17 13:37:02 51°25.073 3°11.066 15.4138 0.024406 0.180369 0.845107
2009-12-17 13:38:01 51°25.257 3°11.146 15.2808 0.029551 0.21977 0.845107
2009-12-17 13:39:02 51°25.446 3°11.23 15.5247 0.030992 0.231008 0.810283
2009-12-17 13:40:02 51°25.634 3°11.308 15.5519 0.022965 0.169505 0.810283
2009-12-17 13:41:02 51°25.817 3°11.384 15.5113 0.026567 0.197087 0.810283
2009-12-17 13:42:01 51°26 3°11.443 15.321 0.025023 0.1853 0.810283
2009-12-17 13:43:01 51°26.188 3°11.493 15.4597 0.022965 0.169715 0.879931
2009-12-17 13:44:01 51°26.377 3°11.544 15.4003 0.029346 0.218592 0.879931
2009-12-17 13:45:01 51°26.563 3°11.63 15.567 0.025641 0.190103 0.914755
2009-12-17 13:46:01 51°26.75 3°11.733 15.4864 0.023891 0.17689 0.879931
2009-12-17 13:47:01 51°26.94 3°11.8 15.5722 0.022759 0.168165 0.914755
2009-12-17 13:48:01 51°27.094 3°11.693 15.4432 0.021319 0.157235 0.914755
2009-12-17 13:49:01 51°27.153 3°11.453 15.4527 0.021833 0.161215 0.949579
2009-12-17 13:50:02 51°27.156 3°11.188 15.62 0.023788 0.176183 0.949579
2009-12-17 13:51:02 51°27.114 3°10.941 15.4765 0.022245 0.164385 0.984403
2009-12-17 13:52:01 51°27.056 3°10.709 15.4186 0.026361 0.195859 0.984403
2009-12-17 13:53:01 51°26.993 3°10.475 15.5525 0.021936 0.162086 0.984403
2009-12-17 13:54:01 51°26.928 3°10.241 15.4615 0.022142 0.163657 0.984403
2009-12-17 13:55:01 51°26.865 3°10.003 15.5368 0.022348 0.16531 0.984403
2009-12-17 13:56:01 51°26.804 3°9.762 15.5222 0.023891 0.177125 0.984403
2009-12-17 13:57:01 51°26.74 3°9.524 15.5304 0.021524 0.159064 1.019227
2009-12-17 13:58:01 51°26.678 3°9.284 15.5659 0.025744 0.191407 1.019227
2009-12-17 13:59:01 51°26.614 3°9.047 15.556 0.022245 0.164701 1.019227
2009-12-17 14:00:01 51°26.549 3°8.811 15.4788 0.022451 0.166362 1.019227
2009-12-17 14:01:02 51°26.485 3°8.576 15.5989 0.024406 0.181412 1.019227
2009-12-17 14:02:02 51°26.421 3°8.346 15.5472 0.023788 0.17674 1.019227
2009-12-17 14:03:01 51°26.36 3°8.121 15.5827 0.025847 0.192601 1.019227
2009-12-17 14:04:01 51°26.296 3°7.892 15.4244 0.028111 0.210151 1.019227
2009-12-17 14:05:01 51°26.233 3°7.667 15.5473 0.023274 0.172952 1.019227
2009-12-17 14:06:01 51°26.171 3°7.442 15.4078 0.022862 0.16986 1.054051
2009-12-17 14:07:02 51°26.112 3°7.207 15.3594 0.024509 0.182522 1.054051
2009-12-17 14:08:01 51°26.051 3°6.978 15.378 0.022348 0.165938 1.088875
2009-12-17 14:09:02 51°25.986 3°6.743 15.3915 0.021627 0.160511 1.088875
2009-12-17 14:10:01 51°25.921 3°6.518 15.5544 0.023891 0.177975 1.088875
2009-12-17 14:11:01 51°25.848 3°6.296 15.47 0.024715 0.184317 1.088875
2009-12-17 14:12:01 51°25.775 3°6.078 15.3654 0.028111 0.210548 1.054051
2009-12-17 14:13:02 51°25.715 3°5.849 15.4927 0.02667 0.199524 1.088875
2009-12-17 14:14:01 51°25.671 3°5.614 15.3485 0.024303 0.181311 1.054051
2009-12-17 14:15:01 51°25.633 3°5.372 15.4357 0.02492 0.186112 1.054051
2009-12-17 14:16:01 51°25.594 3°5.129 15.3419 0.022348 0.166332 1.054051
2009-12-17 14:17:01 51°25.552 3°4.891 15.406 0.023686 0.17675 1.054051
2009-12-17 14:18:01 51°25.512 3°4.651 15.476 0.022039 0.164084 1.054051
2009-12-17 14:19:02 51°25.47 3°4.408 15.4488 0.022862 0.170497 1.054051
2009-12-17 14:20:02 51°25.429 3°4.17 15.3919 0.021524 0.16022 1.054051
2009-12-17 14:21:01 51°25.387 3°3.938 15.5318 0.026876 0.201655 1.054051
2009-12-17 14:22:01 51°25.337 3°3.708 15.5482 0.027287 0.204918 1.054051
2009-12-17 14:23:01 51°25.238 3°3.529 15.3709 0.02739 0.205832 1.019227
2009-12-17 14:24:01 51°25.129 3°3.364 15.4976 0.024818 0.185981 1.054051
2009-12-17 14:25:02 51°25.017 3°3.2 15.4127 0.023377 0.174884 1.054051
2009-12-17 14:26:01 51°24.913 3°3.034 15.4562 0.027699 0.208448 1.054051
2009-12-17 14:27:01 51°24.803 3°2.867 15.488 0.021319 0.159101 1.054051
2009-12-17 14:28:01 51°24.67 3°2.746 15.4392 0.025847 0.194106 1.054051
2009-12-17 14:29:01 51°24.514 3°2.703 15.483 0.023068 0.172656 1.054051
2009-12-17 14:30:01 51°24.355 3°2.673 15.5231 0.026876 0.202215 1.019227
2009-12-17 14:31:01 51°24.207 3°2.595 15.4992 0.021936 0.164018 1.054051
2009-12-17 14:32:01 51°24.064 3°2.498 15.5714 0.02667 0.200781 1.054051
2009-12-17 14:33:01 51°23.93 3°2.381 15.4837 0.022245 0.166513 1.054051
2009-12-17 14:34:01 51°23.804 3°2.236 15.5899 0.028522 0.215353 1.054051
2009-12-17 14:35:01 51°23.678 3°2.095 15.5371 0.023891 0.179337 1.054051
2009-12-17 14:36:01 51°23.552 3°1.948 15.5613 0.021524 0.161056 1.019227
2009-12-17 14:37:01 51°23.423 3°1.806 15.616 0.022656 0.169885 1.054051
2009-12-17 14:38:02 51°23.292 3°1.668 15.5609 0.022348 0.167524 1.088875
2009-12-17 14:39:01 51°23.165 3°1.537 15.577 0.022759 0.170772 1.088875
2009-12-17 14:40:01 51°23.038 3°1.398 15.5514 0.028008 0.21166 1.054051
2009-12-17 14:41:01 51°22.911 3°1.258 15.5717 0.022245 0.166864 1.054051
2009-12-17 14:42:01 51°22.784 3°1.118 15.5647 0.021524 0.161365 1.054051
2009-12-17 14:43:01 51°22.654 3°0.981 15.6373 0.022656 0.17011 1.019227
2009-12-17 14:44:01 51°22.528 3°0.846 15.5492 0.025641 0.193358 1.054051
2009-12-17 14:45:01 51°22.403 3°0.703 15.6514 0.024509 0.184649 1.054051
2009-12-17 14:46:01 51°22.273 3°0.574 15.6133 0.022451 0.16868 1.054051
2009-12-17 14:47:01 51°22.146 3°0.434 15.6595 0.021524 0.161544 1.054051
2009-12-17 14:48:01 51°22.024 3°0.289 15.6423 0.02739 0.20726 1.054051
2009-12-17 14:49:01 51°21.896 3°0.15 15.5883 0.028111 0.212917 1.054051
2009-12-17 14:50:01 51°21.768 3°0.004 15.584 0.026567 0.200882 1.054051
2009-12-17 14:51:02 51°21.637 2°59.859 15.6353 0.022039 0.165652 1.054051
2009-12-17 14:52:01 51°21.52 2°59.705 15.6335 0.021524 0.161651 1.019227
2009-12-17 14:53:01 51°21.433 2°59.496 15.5394 0.02667 0.201773 1.019227
2009-12-17 14:54:01 51°21.358 2°59.271 15.5931 0.023274 0.175329 1.054051
2009-12-17 14:55:01 51°21.279 2°59.05 15.6339 0.026773 0.202687 1.019227
2009-12-17 14:56:01 51°21.183 2°58.854 15.657 0.025847 0.195475 1.019227
2009-12-17 14:57:01 51°21.083 2°58.661 15.6534 0.022451 0.16907 1.019227
2009-12-17 14:58:01 51°20.983 2°58.464 15.5705 0.021936 0.16509 1.019227
2009-12-17 14:59:01 51°20.884 2°58.265 15.6862 0.022554 0.169951 1.019227
2009-12-17 15:00:02 51°20.785 2°58.059 15.6743 0.022348 0.168386 1.019227
2009-12-17 15:01:01 51°20.691 2°57.858 15.7145 0.021936 0.165217 1.019227
2009-12-17 15:02:01 51°20.593 2°57.654 15.6786 0.022245 0.167671 1.019227
2009-12-17 15:03:01 51°20.496 2°57.447 15.6028 0.025538 0.193399 1.019227
2009-12-17 15:04:01 51°20.398 2°57.241 15.6631 0.022142 0.166897 1.019227
2009-12-17 15:05:01 51°20.301 2°57.036 15.6748 0.024406 0.184592 1.019227
2009-12-17 15:06:01 51°20.206 2°56.825 15.7276 0.023994 0.181469 1.019227
2009-12-17 15:07:01 51°20.108 2°56.613 15.6984 0.021936 0.165392 1.019227
2009-12-17 15:08:01 51°20.01 2°56.402 15.7173 0.023274 0.175896 1.019227
2009-12-17 15:09:01 51°19.91 2°56.193 15.7185 0.022245 0.167849 1.019227
2009-12-17 15:10:01 51°19.813 2°55.982 15.7296 0.021627 0.163103 1.019227
2009-12-17 15:11:01 51°19.713 2°55.78 15.6636 0.022862 0.17285 1.019227
2009-12-17 15:12:01 51°19.616 2°55.575 15.7191 0.023789 0.180145 1.019227
2009-12-17 15:13:01 51°19.515 2°55.373 15.6638 0.025023 0.189802 1.019227
2009-12-17 15:14:01 51°19.419 2°55.164 15.7198 0.02348 0.17775 1.019227
2009-12-17 15:15:01 51°19.323 2°54.958 15.707 0.026876 0.204468 0.949579
2009-12-17 15:16:01 51°19.227 2°54.752 15.7163 0.022348 0.169011 1.019227
2009-12-17 15:17:01 51°19.129 2°54.547 15.6891 0.026258 0.199676 0.984403
2009-12-17 15:18:01 51°19.025 2°54.353 15.745 0.022348 0.16911 0.984403
2009-12-17 15:19:01 51°18.901 2°54.198 15.7742 0.025538 0.194141 1.019227
2009-12-17 15:20:01 51°18.765 2°54.06 15.8 0.023377 0.177178 0.984403
2009-12-17 15:21:02 51°18.627 2°53.918 15.834 0.022348 0.169182 1.019227
2009-12-17 15:22:01 51°18.497 2°53.781 15.8036 0.022451 0.170046 0.984403
2009-12-17 15:23:01 51°18.366 2°53.636 15.7783 0.025023 0.190263 0.984403
2009-12-17 15:24:01 51°18.242 2°53.474 15.819 0.024818 0.188681 0.984403
2009-12-17 15:25:01 51°18.116 2°53.314 15.7734 0.025435 0.193541 0.984403
2009-12-17 15:26:01 51°17.989 2°53.159 15.7546 0.023068 0.174968 0.984403
2009-12-17 15:27:01 51°17.861 2°53.005 15.6982 0.028317 0.216382 0.984403
2009-12-17 15:28:01 51°17.734 2°52.851 12.0624 0.950135 7.993979 0.740634
2009-12-17 15:29:01 51°17.613 2°52.687 14.256 1.179614 10.068221 0.775459
2009-12-17 15:30:01 51°17.478 2°52.56 14.1774 1.402487 12.044457 0.810283
2009-12-17 15:31:02 51°17.324 2°52.495 14.378 1.363702 11.715989 0.914755
2009-12-17 15:32:01 51°17.164 2°52.508 14.3458 1.362258 11.707043 0.984403
2009-12-17 15:33:01 51°17.007 2°52.61 14.3521 1.375255 11.830797 0.70581
2009-12-17 15:34:01 51°16.852 2°52.73 14.4567 1.375565 11.846718 0.670986
2009-12-17 15:35:01 51°16.701 2°52.835 14.5091 1.375668 11.86288 0.914755
2009-12-17 15:36:01 51°16.542 2°52.928 14.4937 1.376906 11.88695 0.949579
2009-12-17 15:37:01 51°16.38 2°53.013 14.5446 1.376493 11.891952 0.949579
2009-12-17 15:38:01 51°16.217 2°53.096 14.5764 1.376081 11.893595 0.949579
2009-12-17 15:39:01 51°16.056 2°53.172 14.6185 1.366694 11.804221 0.949579
2009-12-17 15:40:01 51°15.894 2°53.256 14.6405 1.366179 11.809725 0.914755
2009-12-17 15:41:01 51°15.73 2°53.343 14.6723 1.371027 11.864902 0.949579
2009-12-17 15:42:01 51°15.566 2°53.418 14.6992 1.371646 11.879276 0.914755
2009-12-17 15:43:01 51°15.398 2°53.494 14.7245 1.369686 11.866708 0.914755
2009-12-17 15:44:01 51°15.272 2°53.683 14.7503 1.367107 11.854442 0.914755
2009-12-17 15:45:01 51°15.173 2°53.906 14.777 1.370615 11.893839 0.949579
2009-12-17 15:46:01 51°15.079 2°54.093 14.8038 1.364941 11.840217 0.949579
2009-12-17 15:47:01 51°15.003 2°54.279 14.8278 1.370512 11.909806 0.949579
2009-12-17 15:48:01 51°14.899 2°54.484 14.8543 1.362053 11.834503 0.949579
2009-12-17 15:49:01 51°14.772 2°54.689 14.8697 1.36422 11.865956 0.949579
2009-12-17 15:50:01 51°14.622 2°54.852 14.9022 1.364942 11.882928 0.949579
2009-12-17 15:51:02 51°14.459 2°54.98 14.9455 1.360094 11.842141 0.949579
2009-12-17 15:52:02 51°14.326 2°55.166 14.9561 1.36257 11.871963 0.949579
2009-12-17 15:53:01 51°14.213 2°55.329 14.9581 1.364736 11.900447 0.949579
2009-12-17 15:54:02 51°14.089 2°55.431 15.0034 1.361435 11.877925 0.949579
2009-12-17 15:55:04 51°13.976 2°55.516 15.0026 1.361538 11.883849 0.949579
2009-12-17 15:56:05 51°13.889 2°55.582 15.0398 1.360713 11.884095 0.949579
2009-12-17 15:57:06 51°13.807 2°55.653 15.0521 1.359888 11.882173 0.949579
2009-12-17 15:58:06 51°13.741 2°55.747 15.0741 1.359476 11.884157 0.949579
2009-12-17 15:59:05 51°13.698 2°55.832 15.1095 1.359063 11.886143 0.984403
2009-12-17 16:00:06 51°13.67 2°55.918 15.1219 1.358444 11.884624 0.984403